createdAt,value
2019-04-24T00:01:15.235Z,10.13
2019-04-24T00:04:00.732Z,9.90
2019-04-24T00:06:26.601Z,10.57
2019-04-24T00:08:54.831Z,11.67
2019-04-24T00:14:33.536Z,10.30
2019-04-24T00:17:09.290Z,9.40
2019-04-24T00:22:04.038Z,11.33
2019-04-24T00:32:07.676Z,11.00
2019-04-24T00:39:27.984Z,11.83
2019-04-24T00:42:09.787Z,10.97
2019-04-24T00:44:19.018Z,11.30
2019-04-24T00:47:08.617Z,10.77
2019-04-24T00:52:09.545Z,11.40
2019-04-24T00:54:24.229Z,11.43
2019-04-24T00:57:00.484Z,11.40
2019-04-24T01:02:21.806Z,11.30
2019-04-24T01:05:07.389Z,11.70
2019-04-24T01:07:36.306Z,12.20
2019-04-24T01:10:07.179Z,12.30
2019-04-24T01:12:28.643Z,12.07
2019-04-24T01:15:15.954Z,12.30
2019-04-24T01:17:30.485Z,11.60
2019-04-24T01:25:12.520Z,12.87
2019-04-24T01:27:25.123Z,12.03
2019-04-24T01:30:12.991Z,12.80
2019-04-24T01:32:35.140Z,13.47
2019-04-24T01:35:03.282Z,12.57
2019-04-24T01:38:05.150Z,13.00
2019-04-24T01:40:12.164Z,12.83
2019-04-24T01:43:05.409Z,13.50
2019-04-24T01:50:23.456Z,13.47
2019-04-24T01:52:55.309Z,14.13
2019-04-24T01:55:16.507Z,13.03
2019-04-24T01:57:49.727Z,13.27
2019-04-24T02:00:31.881Z,14.17
2019-04-24T02:02:50.859Z,13.83
2019-04-24T02:08:02.520Z,13.13
2019-04-24T02:10:42.856Z,14.27
2019-04-24T02:13:16.839Z,15.03
2019-04-24T02:15:29.054Z,14.47
2019-04-24T02:22:56.464Z,14.57
2019-04-24T02:25:40.394Z,14.57
2019-04-24T02:35:59.881Z,15.33
2019-04-24T02:38:39.810Z,16.67
2019-04-24T02:41:21.008Z,15.87
2019-04-24T02:46:09.610Z,15.63
2019-04-24T02:51:09.396Z,16.57
2019-04-24T02:53:40.200Z,16.17
2019-04-24T02:58:52.103Z,16.40
2019-04-24T03:01:10.289Z,16.20
2019-04-24T03:03:42.819Z,17.07
2019-04-24T03:08:52.314Z,17.30
2019-04-24T03:11:18.843Z,17.63
2019-04-24T03:14:09.444Z,17.77
2019-04-24T03:19:40.263Z,17.53
2019-04-24T03:22:13.303Z,18.37
2019-04-24T03:24:35.181Z,18.60
2019-04-24T03:40:05.428Z,19.13
2019-04-24T03:45:06.902Z,18.83
2019-04-24T03:47:09.876Z,18.60
2019-04-24T04:00:27.796Z,19.73
2019-04-24T04:07:29.853Z,22.07
2019-04-24T04:10:22.090Z,22.77
2019-04-24T04:15:08.624Z,22.70
2019-04-24T04:20:37.026Z,21.33
2019-04-24T04:23:03.949Z,22.27
2019-04-24T04:25:33.118Z,22.43
2019-04-24T04:35:30.130Z,22.73
2019-04-24T04:38:14.984Z,22.70
2019-04-24T04:43:06.520Z,22.90
2019-04-24T04:46:00.898Z,23.53
2019-04-24T04:48:25.198Z,22.47
2019-04-24T04:50:50.905Z,23.57
2019-04-24T04:58:33.058Z,22.30
2019-04-24T05:03:44.116Z,22.73
2019-04-24T05:11:44.516Z,20.60
2019-04-24T05:14:17.660Z,20.47
2019-04-24T05:21:42.838Z,21.80
2019-04-24T05:29:14.234Z,20.60
2019-04-24T05:31:48.235Z,19.60
2019-04-24T05:34:19.359Z,20.53
2019-04-24T05:36:46.092Z,20.60
2019-04-24T05:44:15.214Z,19.43
2019-04-24T05:46:43.387Z,19.63
2019-04-24T05:51:47.349Z,20.17
2019-04-24T05:54:36.249Z,19.63
2019-04-24T05:57:20.770Z,19.40
2019-04-24T05:59:36.036Z,20.07
2019-04-24T06:04:38.873Z,20.53
2019-04-24T06:09:34.860Z,20.33
2019-04-24T06:12:09.487Z,20.20
2019-04-24T06:14:43.671Z,19.63
2019-04-24T06:17:16.869Z,20.93
2019-04-24T06:22:36.029Z,19.50
2019-04-24T06:27:17.324Z,19.43
2019-04-24T06:29:58.387Z,19.77
2019-04-24T06:40:20.979Z,18.03
2019-04-24T06:52:58.874Z,18.53
2019-04-24T06:55:38.452Z,17.87
2019-04-24T06:58:02.640Z,17.37
2019-04-24T07:00:40.103Z,18.00
2019-04-24T07:07:58.951Z,18.87
2019-04-24T07:13:40.090Z,17.57
2019-04-24T07:16:03.391Z,17.90
2019-04-24T07:18:30.295Z,17.80
2019-04-24T07:21:21.108Z,17.20
2019-04-24T07:23:57.865Z,18.00
2019-04-24T07:26:35.683Z,17.60
2019-04-24T07:31:50.749Z,15.97
2019-04-24T07:36:46.294Z,17.57
2019-04-24T07:39:34.139Z,17.63
2019-04-24T07:44:20.230Z,16.53
2019-04-24T07:47:11.940Z,16.27
2019-04-24T07:49:39.229Z,16.40
2019-04-24T07:57:32.154Z,17.67
2019-04-24T08:00:03.667Z,16.23
2019-04-24T08:02:37.400Z,16.63
2019-04-24T08:07:42.892Z,15.53
2019-04-24T08:15:21.150Z,14.87
2019-04-24T08:20:33.950Z,14.07
2019-04-24T08:22:50.374Z,14.47
2019-04-24T08:25:26.729Z,14.10
2019-04-24T08:30:43.288Z,12.83
2019-04-24T08:33:18.594Z,12.80
2019-04-24T08:35:40.716Z,13.80
2019-04-24T08:38:13.139Z,12.50
2019-04-24T08:40:53.508Z,12.63
2019-04-24T08:43:11.889Z,12.10
2019-04-24T08:45:55.012Z,12.73
2019-04-24T08:48:46.945Z,11.80
2019-04-24T08:53:48.481Z,11.80
2019-04-24T08:56:04.085Z,11.13
2019-04-24T08:58:36.095Z,11.33
2019-04-24T09:04:15.822Z,11.07
2019-04-24T09:06:47.310Z,12.67
2019-04-24T09:09:38.030Z,12.00
2019-04-24T09:11:59.771Z,11.90
2019-04-24T09:19:30.857Z,13.50
2019-04-24T09:24:49.896Z,12.17
2019-04-24T09:30:17.590Z,12.17
2019-04-24T09:34:56.336Z,11.97
2019-04-24T09:40:27.455Z,11.50
2019-04-24T09:50:11.411Z,10.70
2019-04-24T09:52:40.846Z,9.93
2019-04-24T09:55:08.910Z,11.07
2019-04-24T09:57:43.366Z,11.40
2019-04-24T10:00:06.522Z,11.40
2019-04-24T10:02:41.672Z,10.60
2019-04-24T10:05:38.108Z,10.53
2019-04-24T10:08:05.630Z,10.70
2019-04-24T10:10:28.180Z,11.17
2019-04-24T10:13:00.735Z,12.30
2019-04-24T10:18:02.259Z,10.87
2019-04-24T10:20:32.245Z,10.93
2019-04-24T10:23:28.826Z,12.60
2019-04-24T10:25:35.152Z,10.97
2019-04-24T10:33:46.903Z,11.57
2019-04-24T10:36:10.436Z,10.93
2019-04-24T10:38:44.304Z,11.60
2019-04-24T10:41:27.674Z,10.57
2019-04-24T10:43:52.526Z,11.93
2019-04-24T10:46:34.927Z,11.20
2019-04-24T10:49:06.656Z,10.43
2019-04-24T10:54:02.965Z,11.90
2019-04-24T10:56:44.374Z,11.60
2019-04-24T10:59:03.361Z,11.57
2019-04-24T11:04:48.468Z,11.40
2019-04-24T11:10:23.728Z,10.10
2019-04-24T11:13:00.684Z,11.23
2019-04-24T11:15:33.152Z,10.07
2019-04-24T11:18:05.462Z,10.17
2019-04-24T11:20:33.949Z,10.53
2019-04-24T11:23:20.223Z,10.67
2019-04-24T11:28:21.974Z,10.63
2019-04-24T11:30:48.988Z,10.20
2019-04-24T11:33:21.882Z,10.63
2019-04-24T11:36:12.330Z,11.63
2019-04-24T11:38:52.749Z,10.20
2019-04-24T11:41:01.083Z,9.93
2019-04-24T11:46:29.696Z,10.53
2019-04-24T11:54:09.536Z,11.40
2019-04-24T11:58:55.906Z,10.50
2019-04-24T12:01:59.113Z,9.57
2019-04-24T12:07:04.371Z,9.23
2019-04-24T12:09:36.396Z,9.87
2019-04-24T12:12:00.353Z,10.60
2019-04-24T12:17:13.297Z,9.30
2019-04-24T12:20:01.286Z,9.43
2019-04-24T12:22:23.613Z,9.60
2019-04-24T12:27:35.149Z,8.90
2019-04-24T12:29:59.053Z,8.97
2019-04-24T12:32:22.065Z,8.60
2019-04-24T12:34:59.099Z,7.97
2019-04-24T12:37:29.839Z,7.77
2019-04-24T12:40:14.605Z,7.80
2019-04-24T12:42:42.145Z,7.40
2019-04-24T12:44:52.836Z,9.17
2019-04-24T12:47:33.798Z,8.67
2019-04-24T12:50:15.600Z,8.63
2019-04-24T12:55:11.526Z,8.20
2019-04-24T12:57:48.504Z,7.80
2019-04-24T13:00:22.108Z,8.27
2019-04-24T13:10:45.593Z,7.70
2019-04-24T13:13:22.177Z,8.03
2019-04-24T13:18:15.772Z,7.47
2019-04-24T13:20:26.162Z,7.40
2019-04-24T13:23:00.400Z,6.73
2019-04-24T13:25:53.526Z,6.53
2019-04-24T13:28:52.283Z,7.10
2019-04-24T13:31:12.193Z,6.97
2019-04-24T13:33:38.689Z,6.37
2019-04-24T13:41:04.079Z,6.80
2019-04-24T13:48:46.391Z,6.67
2019-04-24T13:51:08.405Z,6.50
2019-04-24T13:56:10.999Z,6.37
2019-04-24T13:58:50.132Z,5.63
2019-04-24T14:01:35.494Z,6.33
2019-04-24T14:04:11.988Z,6.67
2019-04-24T14:06:39.625Z,6.63
2019-04-24T14:13:59.956Z,6.57
2019-04-24T14:16:20.354Z,6.40
2019-04-24T14:19:09.135Z,6.37
2019-04-24T14:21:24.637Z,5.97
2019-04-24T14:26:34.795Z,5.67
2019-04-24T14:29:06.303Z,5.60
2019-04-24T14:36:33.419Z,5.33
2019-04-24T14:46:49.848Z,5.10
2019-04-24T14:49:21.728Z,5.03
2019-04-24T14:51:52.538Z,4.87
2019-04-24T14:56:43.227Z,5.40
2019-04-24T14:59:17.641Z,5.60
2019-04-24T15:04:15.259Z,5.30
2019-04-24T15:06:49.858Z,5.67
2019-04-24T15:09:13.495Z,5.63
2019-04-24T15:12:01.112Z,5.37
2019-04-24T15:14:28.516Z,6.27
2019-04-24T15:16:53.160Z,5.07
2019-04-24T15:21:56.919Z,5.37
2019-04-24T15:26:49.509Z,5.43
2019-04-24T15:29:20.261Z,5.17
2019-04-24T15:31:48.839Z,5.20
2019-04-24T15:34:24.710Z,4.90
2019-04-24T15:36:55.086Z,4.87
2019-04-24T15:39:23.274Z,5.43
2019-04-24T15:41:55.983Z,5.03
2019-04-24T15:44:17.727Z,5.20
2019-04-24T15:46:56.221Z,6.00
2019-04-24T15:49:24.654Z,4.77
2019-04-24T15:51:31.120Z,5.37
2019-04-24T15:53:52.797Z,5.87
2019-04-24T15:56:21.301Z,6.07
2019-04-24T15:59:00.786Z,7.97
2019-04-24T16:01:57.007Z,8.17
2019-04-24T16:06:22.929Z,8.03
2019-04-24T16:08:53.318Z,9.03
2019-04-24T16:11:21.765Z,8.83
2019-04-24T16:13:58.694Z,8.83
2019-04-24T16:16:54.929Z,8.70
2019-04-24T16:21:51.515Z,7.47
2019-04-24T16:24:38.242Z,8.90
2019-04-24T16:27:02.897Z,8.33
2019-04-24T16:29:20.403Z,9.67
2019-04-24T16:37:06.520Z,9.93
2019-04-24T16:39:18.279Z,11.03
2019-04-24T16:42:05.680Z,10.00
2019-04-24T16:44:45.072Z,9.97
2019-04-24T16:49:41.219Z,9.57
2019-04-24T16:52:09.123Z,9.83
2019-04-24T16:54:23.565Z,9.63
2019-04-24T16:59:43.207Z,8.93
2019-04-24T17:07:16.631Z,8.40
2019-04-24T17:20:02.992Z,7.83
2019-04-24T17:22:32.397Z,7.30
2019-04-24T17:27:29.637Z,7.43
2019-04-24T17:30:02.945Z,6.73
2019-04-24T17:32:28.650Z,7.77
2019-04-24T17:37:02.841Z,6.00
2019-04-24T17:39:33.200Z,6.83
2019-04-24T17:42:12.642Z,6.83
2019-04-24T17:55:04.496Z,7.37
2019-04-24T17:59:36.373Z,7.03
2019-04-24T18:02:13.780Z,7.93
2019-04-24T18:04:49.207Z,7.37
2019-04-24T18:07:17.810Z,7.63
2019-04-24T18:09:46.405Z,7.47
2019-04-24T18:12:15.199Z,6.93
2019-04-24T18:14:43.710Z,7.13
2019-04-24T18:17:12.990Z,7.30
2019-04-24T18:19:42.226Z,7.47
2019-04-24T18:22:12.638Z,7.10
2019-04-24T18:24:52.180Z,7.70
2019-04-24T18:27:22.587Z,7.83
2019-04-24T18:29:51.448Z,7.57
2019-04-24T18:32:23.188Z,8.20
2019-04-24T18:34:52.048Z,7.53
2019-04-24T18:37:20.794Z,8.07
2019-04-24T18:39:49.330Z,8.17
2019-04-24T18:42:17.963Z,8.47
2019-04-24T18:44:46.440Z,7.87
2019-04-24T18:47:15.095Z,8.40
2019-04-24T18:49:43.582Z,8.63
2019-04-24T18:52:12.871Z,8.03
2019-04-24T18:54:43.472Z,8.60
2019-04-24T18:57:12.935Z,8.43
2019-04-24T18:59:43.171Z,7.97
2019-04-24T19:02:12.905Z,8.60
2019-04-24T19:04:41.465Z,8.27
2019-04-24T19:07:10.905Z,7.97
2019-04-24T19:09:39.837Z,7.90
2019-04-24T19:12:09.036Z,8.43
2019-04-24T19:14:37.671Z,8.63
2019-04-24T19:17:07.727Z,7.60
2019-04-24T19:19:36.362Z,8.47
2019-04-24T19:22:08.193Z,8.40
2019-04-24T19:24:36.838Z,7.90
2019-04-24T19:27:05.935Z,8.30
2019-04-24T19:29:34.412Z,9.00
2019-04-24T19:32:02.890Z,8.67
2019-04-24T19:34:32.611Z,9.37
2019-04-24T19:37:04.423Z,9.67
2019-04-24T19:39:33.034Z,10.93
2019-04-24T19:42:02.499Z,9.87
2019-04-24T19:44:31.460Z,10.57
2019-04-24T19:47:00.137Z,10.03
2019-04-24T19:49:28.667Z,10.20
2019-04-24T19:51:57.213Z,10.13
2019-04-24T19:54:25.715Z,10.27
2019-04-24T19:56:54.219Z,9.83
2019-04-24T19:59:23.081Z,10.80
2019-04-24T20:01:54.197Z,10.60
2019-04-24T20:04:23.271Z,10.13
2019-04-24T20:06:51.814Z,11.17
2019-04-24T20:09:22.501Z,11.00
2019-04-24T20:11:53.849Z,10.77
2019-04-24T20:14:23.155Z,10.60
2019-04-24T20:16:51.714Z,9.90
2019-04-24T20:19:22.510Z,11.87
2019-04-24T20:21:51.791Z,11.17
2019-04-24T20:24:20.491Z,11.27
2019-04-24T20:26:48.946Z,10.87
2019-04-24T20:29:17.699Z,10.30
2019-04-24T20:31:46.182Z,10.00
2019-04-24T20:34:14.663Z,10.40
2019-04-24T20:36:43.311Z,10.97
2019-04-24T20:39:13.097Z,10.57
2019-04-24T20:41:41.733Z,10.30
2019-04-24T20:44:11.515Z,10.23
2019-04-24T20:46:42.951Z,10.70
2019-04-24T20:49:11.232Z,10.17
2019-04-24T20:51:41.383Z,10.23
2019-04-24T20:54:10.086Z,9.87
2019-04-24T20:56:41.427Z,10.37
2019-04-24T20:59:12.714Z,9.43
2019-04-24T21:01:41.768Z,9.47
2019-04-24T21:04:11.817Z,9.87
2019-04-24T21:06:46.889Z,10.87
2019-04-24T21:09:18.690Z,10.90
2019-04-24T21:11:47.092Z,10.73
2019-04-24T21:14:15.638Z,9.83
2019-04-24T21:16:44.098Z,9.97
2019-04-24T21:19:12.646Z,10.70
2019-04-24T21:21:41.683Z,10.03
2019-04-24T21:24:10.272Z,10.03
2019-04-24T21:26:38.719Z,10.83
2019-04-24T21:29:07.178Z,9.77
2019-04-24T21:31:35.657Z,10.87
2019-04-24T21:34:04.347Z,10.03
2019-04-24T21:36:33.221Z,10.23
2019-04-24T21:39:02.188Z,9.70
2019-04-24T21:41:30.698Z,10.47
2019-04-24T21:43:59.183Z,10.17
2019-04-24T21:46:28.172Z,10.10
2019-04-24T21:48:56.679Z,10.27
2019-04-24T21:51:25.140Z,10.10
2019-04-24T21:54:03.837Z,10.43
2019-04-24T21:56:24.443Z,10.07
2019-04-24T21:58:53.607Z,9.77
2019-04-24T22:01:42.635Z,9.77
2019-04-24T22:04:12.792Z,9.80
2019-04-24T22:06:42.901Z,9.97
2019-04-24T22:09:13.057Z,10.93
2019-04-24T22:11:41.771Z,9.63
2019-04-24T22:14:12.348Z,9.53
2019-04-24T22:16:41.089Z,9.73
2019-04-24T22:19:09.721Z,9.53
2019-04-24T22:21:41.301Z,9.30
2019-04-24T22:24:18.254Z,9.10
2019-04-24T22:26:43.593Z,8.23
2019-04-24T22:29:12.655Z,4.77
2019-04-24T22:31:42.747Z,3.23
2019-04-24T22:34:15.455Z,1.97
2019-04-24T22:36:44.473Z,1.07
2019-04-24T22:39:21.535Z,0.90
2019-04-24T22:41:50.110Z,0.97
2019-04-24T22:44:18.687Z,1.00
2019-04-24T22:46:47.126Z,0.83
2019-04-24T22:49:15.598Z,0.90
2019-04-24T22:51:44.054Z,0.70
2019-04-24T22:54:12.518Z,1.03
2019-04-24T22:56:50.401Z,0.50
2019-04-24T22:59:12.314Z,0.40
2019-04-24T23:01:53.551Z,0.40
2019-04-24T23:04:11.847Z,0.50
2019-04-24T23:06:41.492Z,0.67
2019-04-24T23:09:12.330Z,0.50
2019-04-24T23:11:41.828Z,0.23
2019-04-24T23:14:11.082Z,0.37
2019-04-24T23:16:39.555Z,0.30
2019-04-24T23:19:07.995Z,0.40
2019-04-24T23:21:40.171Z,0.40
2019-04-24T23:24:12.807Z,0.30
2019-04-24T23:26:46.060Z,0.30
2019-04-24T23:29:22.266Z,0.30
2019-04-24T23:31:52.511Z,0.20
2019-04-24T23:34:22.584Z,0.40
2019-04-24T23:36:52.150Z,0.20
2019-04-24T23:39:21.043Z,0.40
2019-04-24T23:41:49.558Z,0.47
2019-04-24T23:44:18.231Z,0.53
2019-04-24T23:46:46.731Z,0.50
2019-04-24T23:49:15.171Z,0.40
2019-04-24T23:51:43.614Z,0.20
2019-04-24T23:54:12.124Z,0.40
2019-04-24T23:56:42.040Z,0.50
2019-04-24T23:59:10.784Z,0.40
